Tats — ZCYJ — position and weather

sailwx.info

Track history (hours):
 
Tides and Currents Weather Stations Pressure Air Temp Water Temp Dewpoint Dewpoint Depression Visibility Wind Speed Wind Dir Waves Ship Positions

Tats

Last reported at 2015-Aug-02 03:32 UTC. Time now 2015-Aug-02 04:16 UTC.
Position N 41°00' W 072°17'.

Length 40 m; draft 2.3 m.

Type: Pleasure craft. MMSI: 319003500.

Date/timePositionNaut miles runAvg speedWind from/ knotsBaromVisibWave heightAir tempDewpointWater temp
2015-Aug-02 03:32N 41°00' W 072°17'0 0.0
2015-Aug-02 02:32N 41°00' W 072°17'0 0.0
2015-Aug-02 01:32N 41°00' W 072°17'0 0.0
2015-Aug-02 00:32N 41°00' W 072°17'0 0.0
2015-Aug-01 23:34N 41°00' W 072°17'2 1.6
2015-Aug-01 22:34N 41°02' W 072°18'1 1.3
2015-Aug-01 21:31N 41°03' W 072°18'0 0.0
2015-Aug-01 20:31N 41°03' W 072°18'0 0.0
2015-Aug-01 19:31N 41°03' W 072°18'0 0.0
2015-Aug-01 18:31N 41°03' W 072°18'0 0.0
2015-Aug-01 17:28N 41°03' W 072°18'3 3.3
2015-Aug-01 16:33N 41°00' W 072°17'0 0.0
2015-Aug-01 15:33N 41°00' W 072°17'0 0.0
2015-Aug-01 14:33N 41°00' W 072°17'0 0.0
2015-Aug-01 13:33N 41°00' W 072°17'0 0.0
2015-Aug-01 12:33N 41°00' W 072°17'0 0.0
2015-Aug-01 11:33N 41°00' W 072°17'0 0.0
2015-Aug-01 10:34N 41°00' W 072°17'0 0.0
2015-Aug-01 09:33N 41°00' W 072°17'0 0.0
2015-Aug-01 08:33N 41°00' W 072°17'0 0.0
2015-Aug-01 07:34N 41°00' W 072°17'0 0.0
2015-Aug-01 06:34N 41°00' W 072°17'0 0.0
2015-Aug-01 05:33N 41°00' W 072°17'0 0.0
2015-Aug-01 04:33N 41°00' W 072°17'0 0.0
2015-Aug-01 03:34N 41°00' W 072°17'0 0.0
2015-Aug-01 02:33N 41°00' W 072°17'0 0.0
2015-Aug-01 01:33N 41°00' W 072°17'0 0.0
2015-Aug-01 00:33N 41°00' W 072°17'0 0.0
2015-Jul-31 23:33N 41°00' W 072°17'0 0.0
2015-Jul-31 22:34N 41°00' W 072°17'0 0.0
2015-Jul-31 21:33N 41°00' W 072°17'12 3.8
2015-Jul-31 18:27N 41°09' W 072°27'1414.1
2015-Jul-31 17:29N 41°07' W 072°45'2512.9
2015-Jul-31 15:33N 41°01' W 073°17'15 4.8
2015-Jul-31 12:25N 41°00' W 073°37'0 0.0
2015-Jul-31 11:29N 41°00' W 073°37'0 0.0
2015-Jul-31 10:32N 41°00' W 073°37'0 0.0
2015-Jul-31 09:28N 41°00' W 073°37'0 0.0
2015-Jul-31 08:32N 41°00' W 073°37'0 0.0
2015-Jul-31 07:31N 41°00' W 073°37'0 0.0
2015-Jul-31 06:32N 41°00' W 073°37'0 0.0
2015-Jul-31 05:29N 41°00' W 073°37'0 0.0
2015-Jul-31 04:29N 41°00' W 073°37'0 0.0
2015-Jul-31 03:29N 41°00' W 073°37'0 0.0
2015-Jul-31 01:32N 41°00' W 073°37'0 0.0
2015-Jul-31 00:17N 41°00' W 073°37'0 0.0
2015-Jul-30 23:05N 41°00' W 073°37'17 2.8
2015-Jul-30 17:15N 40°48' W 073°52'5 7.0
2015-Jul-30 16:33N 40°46' W 073°57'4 4.1
2015-Jul-30 15:33N 40°43' W 074°01'0 0.0
2015-Jul-30 14:33N 40°43' W 074°01'0 0.0
2015-Jul-30 13:33N 40°43' W 074°01'0 0.0
2015-Jul-30 12:33N 40°43' W 074°01'0 0.0
2015-Jul-30 11:33N 40°43' W 074°01'0 0.0
2015-Jul-30 10:33N 40°43' W 074°01'0 0.0
2015-Jul-30 09:33N 40°43' W 074°01'0 0.0
2015-Jul-30 08:33N 40°43' W 074°01'0 0.0
2015-Jul-30 07:33N 40°43' W 074°01'0 0.0
2015-Jul-30 06:33N 40°43' W 074°01'0 0.0
2015-Jul-30 05:33N 40°43' W 074°01'0 0.0
2015-Jul-30 04:30N 40°43' W 074°01'0 0.0
2015-Jul-30 03:33N 40°43' W 074°01'0 0.0
2015-Jul-30 02:33N 40°43' W 074°01'0 0.0
2015-Jul-30 01:33N 40°43' W 074°01'0 0.0
2015-Jul-30 00:33N 40°43' W 074°01'0 0.0
2015-Jul-29 23:33N 40°43' W 074°01'0 0.0
2015-Jul-29 22:33N 40°43' W 074°01'0 0.0
2015-Jul-29 21:33N 40°43' W 074°01'0 0.0
2015-Jul-29 19:33N 40°43' W 074°01'0 0.0
2015-Jul-29 18:33N 40°43' W 074°01'0 0.0
2015-Jul-29 17:33N 40°43' W 074°01'0 0.0
2015-Jul-29 16:33N 40°43' W 074°01'0 0.0
2015-Jul-29 15:33N 40°43' W 074°01'0 0.0
2015-Jul-29 14:33N 40°43' W 074°01'0 0.0
2015-Jul-29 13:33N 40°43' W 074°01'0 0.0
2015-Jul-29 12:33N 40°43' W 074°01'0 0.0
2015-Jul-29 11:30N 40°43' W 074°01'0 0.0
2015-Jul-29 10:33N 40°43' W 074°01'0 0.0
2015-Jul-29 09:33N 40°43' W 074°01'0 0.0
2015-Jul-29 08:33N 40°43' W 074°01'0 0.0
2015-Jul-29 07:33N 40°43' W 074°01'0 0.0
2015-Jul-29 06:33N 40°43' W 074°01'0 0.0
2015-Jul-29 05:33N 40°43' W 074°01'0 0.0
2015-Jul-29 04:33N 40°43' W 074°01'0 0.0
2015-Jul-29 03:33N 40°43' W 074°01'0 0.0
2015-Jul-29 02:33N 40°43' W 074°01'0 0.0
2015-Jul-29 01:33N 40°43' W 074°01'0 0.0
2015-Jul-29 00:33N 40°43' W 074°01'0 0.0
2015-Jul-28 23:33N 40°43' W 074°01'0 0.0
2015-Jul-28 22:33N 40°43' W 074°01'0 0.0
2015-Jul-28 21:33N 40°43' W 074°01'0 0.0
2015-Jul-28 20:33N 40°43' W 074°01'0 0.0
2015-Jul-28 19:33N 40°43' W 074°01'0 0.0
2015-Jul-28 18:33N 40°43' W 074°01'0 0.0
2015-Jul-28 17:33N 40°43' W 074°01'0 0.0
2015-Jul-28 16:33N 40°43' W 074°01'0 0.0
2015-Jul-28 15:33N 40°43' W 074°01'0 0.0
2015-Jul-28 14:33N 40°43' W 074°01'0 0.0
2015-Jul-28 13:33N 40°43' W 074°01'0 0.0
2015-Jul-28 12:33N 40°43' W 074°01'0 0.0
2015-Jul-28 11:33N 40°43' W 074°01'0 0.0
2015-Jul-28 10:33N 40°43' W 074°01'0 0.0
2015-Jul-28 09:33N 40°43' W 074°01'0 0.0
2015-Jul-28 08:33N 40°43' W 074°01'0 0.0
2015-Jul-28 07:33N 40°43' W 074°01'0 0.0
2015-Jul-28 06:33N 40°43' W 074°01'0 0.0
2015-Jul-28 05:33N 40°43' W 074°01'0 0.0
2015-Jul-28 04:33N 40°43' W 074°01'0 0.0
2015-Jul-28 03:33N 40°43' W 074°01'0 0.0
2015-Jul-28 02:33N 40°43' W 074°01'0 0.0
2015-Jul-28 01:33N 40°43' W 074°01'0 0.0
2015-Jul-28 00:33N 40°43' W 074°01'0 0.0
2015-Jul-27 23:33N 40°43' W 074°01'0 0.0
2015-Jul-27 22:33N 40°43' W 074°01'0 0.0
2015-Jul-27 21:33N 40°43' W 074°01'0 0.0
2015-Jul-27 20:33N 40°43' W 074°01'0 0.0
2015-Jul-27 19:33N 40°43' W 074°01'0 0.0
2015-Jul-27 18:33N 40°43' W 074°01'0 0.0
2015-Jul-27 17:33N 40°43' W 074°01'0 0.0
2015-Jul-27 16:33N 40°43' W 074°01'0 0.0
2015-Jul-27 15:33N 40°43' W 074°01'0 0.0
2015-Jul-27 14:33N 40°43' W 074°01'0 0.0
2015-Jul-27 13:33N 40°43' W 074°01'0 0.0
2015-Jul-27 12:33N 40°43' W 074°01'0 0.0
2015-Jul-27 11:33N 40°43' W 074°01'0 0.0
2015-Jul-27 10:33N 40°43' W 074°01'0 0.0
2015-Jul-27 09:33N 40°43' W 074°01'0 0.0
2015-Jul-27 08:33N 40°43' W 074°01'0 0.0
2015-Jul-27 07:33N 40°43' W 074°01'0 0.0
2015-Jul-27 06:33N 40°43' W 074°01'0 0.0
2015-Jul-27 05:33N 40°43' W 074°01'0 0.0
2015-Jul-27 04:33N 40°43' W 074°01'0 0.0
2015-Jul-27 03:33N 40°43' W 074°01'0 0.0
2015-Jul-27 02:33N 40°43' W 074°01'0 0.0
2015-Jul-27 01:33N 40°43' W 074°01'0 0.0
2015-Jul-27 00:33N 40°43' W 074°01'0 0.0
2015-Jul-26 23:33N 40°43' W 074°01'4 4.0
2015-Jul-26 22:30N 40°46' W 073°57'3 0.3
2015-Jul-26 14:32N 40°48' W 073°55'7 7.3
2015-Jul-26 13:33N 40°43' W 074°01'0 0.3
2015-Jul-26 12:33N 40°43' W 074°01'0 0.0
2015-Jul-26 11:33N 40°43' W 074°01'0 0.0
2015-Jul-26 10:33N 40°43' W 074°01'0 0.0
2015-Jul-26 09:33N 40°43' W 074°01'0 0.0
2015-Jul-26 08:33N 40°43' W 074°01'0 0.0
2015-Jul-26 07:33N 40°43' W 074°01'0 0.0
2015-Jul-26 06:33N 40°43' W 074°01'0 0.0
2015-Jul-26 05:33N 40°43' W 074°01'0 0.0
2015-Jul-26 04:33N 40°43' W 074°01'0 0.0
2015-Jul-26 03:33N 40°43' W 074°01'0 0.0
2015-Jul-26 02:33N 40°43' W 074°01'0 0.0
2015-Jul-26 01:33N 40°43' W 074°01'0 0.0
2015-Jul-26 00:33N 40°43' W 074°01'0 0.0
2015-Jul-25 23:33N 40°43' W 074°01'0 0.0
2015-Jul-25 22:33N 40°43' W 074°01'0 0.0
2015-Jul-25 21:33N 40°43' W 074°01'0 0.0
2015-Jul-25 20:33N 40°43' W 074°01'0 0.0
2015-Jul-25 19:33N 40°43' W 074°01'0 0.0
2015-Jul-25 18:33N 40°43' W 074°01'0 0.0
2015-Jul-25 17:33N 40°43' W 074°01'0 0.0
2015-Jul-25 16:33N 40°43' W 074°01'0 0.0
2015-Jul-25 15:33N 40°43' W 074°01'0 0.0
2015-Jul-25 14:33N 40°43' W 074°01'0 0.0
2015-Jul-25 13:33N 40°43' W 074°01'0 0.0
2015-Jul-25 12:33N 40°43' W 074°01'0 0.0
2015-Jul-25 11:33N 40°43' W 074°01'0 0.0
2015-Jul-25 10:33N 40°43' W 074°01'0 0.0
2015-Jul-25 09:33N 40°43' W 074°01'0 0.0
2015-Jul-25 08:33N 40°43' W 074°01'0 0.0
2015-Jul-25 07:33N 40°43' W 074°01'0 0.0
2015-Jul-25 06:33N 40°43' W 074°01'0 0.0
2015-Jul-25 05:33N 40°43' W 074°01'0 0.0
2015-Jul-25 04:33N 40°43' W 074°01'0 0.0
2015-Jul-25 03:33N 40°43' W 074°01'0 0.0
2015-Jul-25 02:33N 40°43' W 074°01'0 0.0
2015-Jul-25 01:33N 40°43' W 074°01'0 0.0
2015-Jul-25 00:33N 40°43' W 074°01'0 0.0
2015-Jul-24 23:33N 40°43' W 074°01'0 0.0
2015-Jul-24 22:33N 40°43' W 074°01'0 0.0
2015-Jul-24 21:33N 40°43' W 074°01'0 0.0
2015-Jul-24 20:33N 40°43' W 074°01'0 0.0
2015-Jul-24 19:33N 40°43' W 074°01'0 0.0
2015-Jul-24 18:33N 40°43' W 074°01'0 0.0
2015-Jul-24 17:33N 40°43' W 074°01'0 0.0
2015-Jul-24 16:33N 40°43' W 074°01'0 0.0
2015-Jul-24 15:33N 40°43' W 074°01'0 0.0
2015-Jul-24 14:33N 40°43' W 074°01'0 0.0
2015-Jul-24 13:33N 40°43' W 074°01'0 0.0
2015-Jul-24 12:33N 40°43' W 074°01'0 0.0
2015-Jul-24 11:33N 40°43' W 074°01'0 0.0
2015-Jul-24 10:33N 40°43' W 074°01'0 0.0
2015-Jul-24 09:33N 40°43' W 074°01'0 0.0
2015-Jul-24 08:33N 40°43' W 074°01'0 0.0
2015-Jul-24 07:33N 40°43' W 074°01'0 0.0
2015-Jul-24 06:33N 40°43' W 074°01'0 0.0
2015-Jul-24 05:33N 40°43' W 074°01'0 0.0
2015-Jul-24 04:33N 40°43' W 074°01'0 0.0
2015-Jul-24 03:33N 40°43' W 074°01'0 0.0
2015-Jul-24 02:33N 40°43' W 074°01'0 0.0
2015-Jul-24 01:33N 40°43' W 074°01'0 0.0
2015-Jul-24 00:33N 40°43' W 074°01'0 0.0
2015-Jul-23 23:33N 40°43' W 074°01'0 0.0
2015-Jul-23 22:33N 40°43' W 074°01'0 0.0
2015-Jul-23 21:33N 40°43' W 074°01'0 0.0
2015-Jul-23 20:33N 40°43' W 074°01'0 0.0
2015-Jul-23 19:33N 40°43' W 074°01'0 0.0
2015-Jul-23 18:33N 40°43' W 074°01'0 0.0
2015-Jul-23 17:33N 40°43' W 074°01'0 0.0
2015-Jul-23 16:33N 40°43' W 074°01'0 0.0
2015-Jul-23 15:33N 40°43' W 074°01'0 0.0
2015-Jul-23 14:33N 40°43' W 074°01'0 0.0
2015-Jul-23 13:33N 40°43' W 074°01'0 0.0
2015-Jul-23 12:33N 40°43' W 074°01'0 0.0
2015-Jul-23 11:33N 40°43' W 074°01'0 0.0
2015-Jul-23 10:33N 40°43' W 074°01'0 0.0
2015-Jul-23 09:33N 40°43' W 074°01'0 0.0
2015-Jul-23 08:33N 40°43' W 074°01'0 0.0
2015-Jul-23 07:33N 40°43' W 074°01'0 0.0
2015-Jul-23 06:33N 40°43' W 074°01'0 0.0
2015-Jul-23 05:33N 40°43' W 074°01'0 0.0
2015-Jul-23 04:33N 40°43' W 074°01'0 0.0
2015-Jul-23 03:33N 40°43' W 074°01'  
Track history (hours):
 
Tides and Currents Weather Stations Pressure Air Temp Water Temp Dewpoint Dewpoint Depression Visibility Wind Speed Wind Dir Waves Ship Positions

Tats

Last reported at 2015-Aug-02 03:32 UTC. Time now 2015-Aug-02 04:16 UTC.
Position N 41°00' W 072°17'.

Length 40 m; draft 2.3 m.

Type: Pleasure craft. MMSI: 319003500.

Date/timePositionNaut miles runAvg speedWind from/ knotsBaromVisibWave heightAir tempDewpointWater temp
2015-Aug-02 03:32N 41°00' W 072°17'0 0.0
2015-Aug-02 02:32N 41°00' W 072°17'0 0.0
2015-Aug-02 01:32N 41°00' W 072°17'0 0.0
2015-Aug-02 00:32N 41°00' W 072°17'0 0.0
2015-Aug-01 23:34N 41°00' W 072°17'2 1.6
2015-Aug-01 22:34N 41°02' W 072°18'1 1.3
2015-Aug-01 21:31N 41°03' W 072°18'0 0.0
2015-Aug-01 20:31N 41°03' W 072°18'0 0.0
2015-Aug-01 19:31N 41°03' W 072°18'0 0.0
2015-Aug-01 18:31N 41°03' W 072°18'0 0.0
2015-Aug-01 17:28N 41°03' W 072°18'3 3.3
2015-Aug-01 16:33N 41°00' W 072°17'0 0.0
2015-Aug-01 15:33N 41°00' W 072°17'0 0.0
2015-Aug-01 14:33N 41°00' W 072°17'0 0.0
2015-Aug-01 13:33N 41°00' W 072°17'0 0.0
2015-Aug-01 12:33N 41°00' W 072°17'0 0.0
2015-Aug-01 11:33N 41°00' W 072°17'0 0.0
2015-Aug-01 10:34N 41°00' W 072°17'0 0.0
2015-Aug-01 09:33N 41°00' W 072°17'0 0.0
2015-Aug-01 08:33N 41°00' W 072°17'0 0.0
2015-Aug-01 07:34N 41°00' W 072°17'0 0.0
2015-Aug-01 06:34N 41°00' W 072°17'0 0.0
2015-Aug-01 05:33N 41°00' W 072°17'0 0.0
2015-Aug-01 04:33N 41°00' W 072°17'0 0.0
2015-Aug-01 03:34N 41°00' W 072°17'0 0.0
2015-Aug-01 02:33N 41°00' W 072°17'0 0.0
2015-Aug-01 01:33N 41°00' W 072°17'0 0.0
2015-Aug-01 00:33N 41°00' W 072°17'0 0.0
2015-Jul-31 23:33N 41°00' W 072°17'0 0.0
2015-Jul-31 22:34N 41°00' W 072°17'0 0.0
2015-Jul-31 21:33N 41°00' W 072°17'12 3.8
2015-Jul-31 18:27N 41°09' W 072°27'1414.1
2015-Jul-31 17:29N 41°07' W 072°45'2512.9
2015-Jul-31 15:33N 41°01' W 073°17'15 4.8
2015-Jul-31 12:25N 41°00' W 073°37'0 0.0
2015-Jul-31 11:29N 41°00' W 073°37'0 0.0
2015-Jul-31 10:32N 41°00' W 073°37'0 0.0
2015-Jul-31 09:28N 41°00' W 073°37'0 0.0
2015-Jul-31 08:32N 41°00' W 073°37'0 0.0
2015-Jul-31 07:31N 41°00' W 073°37'0 0.0
2015-Jul-31 06:32N 41°00' W 073°37'0 0.0
2015-Jul-31 05:29N 41°00' W 073°37'0 0.0
2015-Jul-31 04:29N 41°00' W 073°37'0 0.0
2015-Jul-31 03:29N 41°00' W 073°37'0 0.0
2015-Jul-31 01:32N 41°00' W 073°37'0 0.0
2015-Jul-31 00:17N 41°00' W 073°37'0 0.0
2015-Jul-30 23:05N 41°00' W 073°37'17 2.8
2015-Jul-30 17:15N 40°48' W 073°52'5 7.0
2015-Jul-30 16:33N 40°46' W 073°57'4 4.1
2015-Jul-30 15:33N 40°43' W 074°01'0 0.0
2015-Jul-30 14:33N 40°43' W 074°01'0 0.0
2015-Jul-30 13:33N 40°43' W 074°01'0 0.0
2015-Jul-30 12:33N 40°43' W 074°01'0 0.0
2015-Jul-30 11:33N 40°43' W 074°01'0 0.0
2015-Jul-30 10:33N 40°43' W 074°01'0 0.0
2015-Jul-30 09:33N 40°43' W 074°01'0 0.0
2015-Jul-30 08:33N 40°43' W 074°01'0 0.0
2015-Jul-30 07:33N 40°43' W 074°01'0 0.0
2015-Jul-30 06:33N 40°43' W 074°01'0 0.0
2015-Jul-30 05:33N 40°43' W 074°01'0 0.0
2015-Jul-30 04:30N 40°43' W 074°01'0 0.0
2015-Jul-30 03:33N 40°43' W 074°01'0 0.0
2015-Jul-30 02:33N 40°43' W 074°01'0 0.0
2015-Jul-30 01:33N 40°43' W 074°01'0 0.0
2015-Jul-30 00:33N 40°43' W 074°01'0 0.0
2015-Jul-29 23:33N 40°43' W 074°01'0 0.0
2015-Jul-29 22:33N 40°43' W 074°01'0 0.0
2015-Jul-29 21:33N 40°43' W 074°01'0 0.0
2015-Jul-29 19:33N 40°43' W 074°01'0 0.0
2015-Jul-29 18:33N 40°43' W 074°01'0 0.0
2015-Jul-29 17:33N 40°43' W 074°01'0 0.0
2015-Jul-29 16:33N 40°43' W 074°01'0 0.0
2015-Jul-29 15:33N 40°43' W 074°01'0 0.0
2015-Jul-29 14:33N 40°43' W 074°01'0 0.0
2015-Jul-29 13:33N 40°43' W 074°01'0 0.0
2015-Jul-29 12:33N 40°43' W 074°01'0 0.0
2015-Jul-29 11:30N 40°43' W 074°01'0 0.0
2015-Jul-29 10:33N 40°43' W 074°01'0 0.0
2015-Jul-29 09:33N 40°43' W 074°01'0 0.0
2015-Jul-29 08:33N 40°43' W 074°01'0 0.0
2015-Jul-29 07:33N 40°43' W 074°01'0 0.0
2015-Jul-29 06:33N 40°43' W 074°01'0 0.0
2015-Jul-29 05:33N 40°43' W 074°01'0 0.0
2015-Jul-29 04:33N 40°43' W 074°01'0 0.0
2015-Jul-29 03:33N 40°43' W 074°01'0 0.0
2015-Jul-29 02:33N 40°43' W 074°01'0 0.0
2015-Jul-29 01:33N 40°43' W 074°01'0 0.0
2015-Jul-29 00:33N 40°43' W 074°01'0 0.0
2015-Jul-28 23:33N 40°43' W 074°01'0 0.0
2015-Jul-28 22:33N 40°43' W 074°01'0 0.0
2015-Jul-28 21:33N 40°43' W 074°01'0 0.0
2015-Jul-28 20:33N 40°43' W 074°01'0 0.0
2015-Jul-28 19:33N 40°43' W 074°01'0 0.0
2015-Jul-28 18:33N 40°43' W 074°01'0 0.0
2015-Jul-28 17:33N 40°43' W 074°01'0 0.0
2015-Jul-28 16:33N 40°43' W 074°01'0 0.0
2015-Jul-28 15:33N 40°43' W 074°01'0 0.0
2015-Jul-28 14:33N 40°43' W 074°01'0 0.0
2015-Jul-28 13:33N 40°43' W 074°01'0 0.0
2015-Jul-28 12:33N 40°43' W 074°01'0 0.0
2015-Jul-28 11:33N 40°43' W 074°01'0 0.0
2015-Jul-28 10:33N 40°43' W 074°01'0 0.0
2015-Jul-28 09:33N 40°43' W 074°01'0 0.0
2015-Jul-28 08:33N 40°43' W 074°01'0 0.0
2015-Jul-28 07:33N 40°43' W 074°01'0 0.0
2015-Jul-28 06:33N 40°43' W 074°01'0 0.0
2015-Jul-28 05:33N 40°43' W 074°01'0 0.0
2015-Jul-28 04:33N 40°43' W 074°01'0 0.0
2015-Jul-28 03:33N 40°43' W 074°01'0 0.0
2015-Jul-28 02:33N 40°43' W 074°01'0 0.0
2015-Jul-28 01:33N 40°43' W 074°01'0 0.0
2015-Jul-28 00:33N 40°43' W 074°01'0 0.0
2015-Jul-27 23:33N 40°43' W 074°01'0 0.0
2015-Jul-27 22:33N 40°43' W 074°01'0 0.0
2015-Jul-27 21:33N 40°43' W 074°01'0 0.0
2015-Jul-27 20:33N 40°43' W 074°01'0 0.0
2015-Jul-27 19:33N 40°43' W 074°01'0 0.0
2015-Jul-27 18:33N 40°43' W 074°01'0 0.0
2015-Jul-27 17:33N 40°43' W 074°01'0 0.0
2015-Jul-27 16:33N 40°43' W 074°01'0 0.0
2015-Jul-27 15:33N 40°43' W 074°01'0 0.0
2015-Jul-27 14:33N 40°43' W 074°01'0 0.0
2015-Jul-27 13:33N 40°43' W 074°01'0 0.0
2015-Jul-27 12:33N 40°43' W 074°01'0 0.0
2015-Jul-27 11:33N 40°43' W 074°01'0 0.0
2015-Jul-27 10:33N 40°43' W 074°01'0 0.0
2015-Jul-27 09:33N 40°43' W 074°01'0 0.0
2015-Jul-27 08:33N 40°43' W 074°01'0 0.0
2015-Jul-27 07:33N 40°43' W 074°01'0 0.0
2015-Jul-27 06:33N 40°43' W 074°01'0 0.0
2015-Jul-27 05:33N 40°43' W 074°01'0 0.0
2015-Jul-27 04:33N 40°43' W 074°01'0 0.0
2015-Jul-27 03:33N 40°43' W 074°01'0 0.0
2015-Jul-27 02:33N 40°43' W 074°01'0 0.0
2015-Jul-27 01:33N 40°43' W 074°01'0 0.0
2015-Jul-27 00:33N 40°43' W 074°01'0 0.0
2015-Jul-26 23:33N 40°43' W 074°01'4 4.0
2015-Jul-26 22:30N 40°46' W 073°57'3 0.3
2015-Jul-26 14:32N 40°48' W 073°55'7 7.3
2015-Jul-26 13:33N 40°43' W 074°01'0 0.3
2015-Jul-26 12:33N 40°43' W 074°01'0 0.0
2015-Jul-26 11:33N 40°43' W 074°01'0 0.0
2015-Jul-26 10:33N 40°43' W 074°01'0 0.0
2015-Jul-26 09:33N 40°43' W 074°01'0 0.0
2015-Jul-26 08:33N 40°43' W 074°01'0 0.0
2015-Jul-26 07:33N 40°43' W 074°01'0 0.0
2015-Jul-26 06:33N 40°43' W 074°01'0 0.0
2015-Jul-26 05:33N 40°43' W 074°01'0 0.0
2015-Jul-26 04:33N 40°43' W 074°01'0 0.0
2015-Jul-26 03:33N 40°43' W 074°01'0 0.0
2015-Jul-26 02:33N 40°43' W 074°01'0 0.0
2015-Jul-26 01:33N 40°43' W 074°01'0 0.0
2015-Jul-26 00:33N 40°43' W 074°01'0 0.0
2015-Jul-25 23:33N 40°43' W 074°01'0 0.0
2015-Jul-25 22:33N 40°43' W 074°01'0 0.0
2015-Jul-25 21:33N 40°43' W 074°01'0 0.0
2015-Jul-25 20:33N 40°43' W 074°01'0 0.0
2015-Jul-25 19:33N 40°43' W 074°01'0 0.0
2015-Jul-25 18:33N 40°43' W 074°01'0 0.0
2015-Jul-25 17:33N 40°43' W 074°01'0 0.0
2015-Jul-25 16:33N 40°43' W 074°01'0 0.0
2015-Jul-25 15:33N 40°43' W 074°01'0 0.0
2015-Jul-25 14:33N 40°43' W 074°01'0 0.0
2015-Jul-25 13:33N 40°43' W 074°01'0 0.0
2015-Jul-25 12:33N 40°43' W 074°01'0 0.0
2015-Jul-25 11:33N 40°43' W 074°01'0 0.0
2015-Jul-25 10:33N 40°43' W 074°01'0 0.0
2015-Jul-25 09:33N 40°43' W 074°01'0 0.0
2015-Jul-25 08:33N 40°43' W 074°01'0 0.0
2015-Jul-25 07:33N 40°43' W 074°01'0 0.0
2015-Jul-25 06:33N 40°43' W 074°01'0 0.0
2015-Jul-25 05:33N 40°43' W 074°01'0 0.0
2015-Jul-25 04:33N 40°43' W 074°01'0 0.0
2015-Jul-25 03:33N 40°43' W 074°01'0 0.0
2015-Jul-25 02:33N 40°43' W 074°01'0 0.0
2015-Jul-25 01:33N 40°43' W 074°01'0 0.0
2015-Jul-25 00:33N 40°43' W 074°01'0 0.0
2015-Jul-24 23:33N 40°43' W 074°01'0 0.0
2015-Jul-24 22:33N 40°43' W 074°01'0 0.0
2015-Jul-24 21:33N 40°43' W 074°01'0 0.0
2015-Jul-24 20:33N 40°43' W 074°01'0 0.0
2015-Jul-24 19:33N 40°43' W 074°01'0 0.0
2015-Jul-24 18:33N 40°43' W 074°01'0 0.0
2015-Jul-24 17:33N 40°43' W 074°01'0 0.0
2015-Jul-24 16:33N 40°43' W 074°01'0 0.0
2015-Jul-24 15:33N 40°43' W 074°01'0 0.0
2015-Jul-24 14:33N 40°43' W 074°01'0 0.0
2015-Jul-24 13:33N 40°43' W 074°01'0 0.0
2015-Jul-24 12:33N 40°43' W 074°01'0 0.0
2015-Jul-24 11:33N 40°43' W 074°01'0 0.0
2015-Jul-24 10:33N 40°43' W 074°01'0 0.0
2015-Jul-24 09:33N 40°43' W 074°01'0 0.0
2015-Jul-24 08:33N 40°43' W 074°01'0 0.0
2015-Jul-24 07:33N 40°43' W 074°01'0 0.0
2015-Jul-24 06:33N 40°43' W 074°01'0 0.0
2015-Jul-24 05:33N 40°43' W 074°01'0 0.0
2015-Jul-24 04:33N 40°43' W 074°01'0 0.0
2015-Jul-24 03:33N 40°43' W 074°01'0 0.0
2015-Jul-24 02:33N 40°43' W 074°01'0 0.0
2015-Jul-24 01:33N 40°43' W 074°01'0 0.0
2015-Jul-24 00:33N 40°43' W 074°01'0 0.0
2015-Jul-23 23:33N 40°43' W 074°01'0 0.0
2015-Jul-23 22:33N 40°43' W 074°01'0 0.0
2015-Jul-23 21:33N 40°43' W 074°01'0 0.0
2015-Jul-23 20:33N 40°43' W 074°01'0 0.0
2015-Jul-23 19:33N 40°43' W 074°01'0 0.0
2015-Jul-23 18:33N 40°43' W 074°01'0 0.0
2015-Jul-23 17:33N 40°43' W 074°01'0 0.0
2015-Jul-23 16:33N 40°43' W 074°01'0 0.0
2015-Jul-23 15:33N 40°43' W 074°01'0 0.0
2015-Jul-23 14:33N 40°43' W 074°01'0 0.0
2015-Jul-23 13:33N 40°43' W 074°01'0 0.0
2015-Jul-23 12:33N 40°43' W 074°01'0 0.0
2015-Jul-23 11:33N 40°43' W 074°01'0 0.0
2015-Jul-23 10:33N 40°43' W 074°01'0 0.0
2015-Jul-23 09:33N 40°43' W 074°01'0 0.0
2015-Jul-23 08:33N 40°43' W 074°01'0 0.0
2015-Jul-23 07:33N 40°43' W 074°01'0 0.0
2015-Jul-23 06:33N 40°43' W 074°01'0 0.0
2015-Jul-23 05:33N 40°43' W 074°01'0 0.0
2015-Jul-23 04:33N 40°43' W 074°01'0 0.0
2015-Jul-23 03:33N 40°43' W 074°01'  

Dump ship's entire track history